Alvada, Ohio
Current Conditions -  °F | °C
As of 1:53 PM on Thursday 23 Oct 2014 (Local Time) from KFDY Reporting Station
Few Clouds Few Clouds  
Wind Chill: 52°   Ceiling: Unl
Heat Index: 52°   Visibility: 10mi
Dew Point: 43°   Wind: 5mph
Humidity: 71%   Direction: 290°WNW
Pressure: 30.21"   Gusts: NA
Location:  41.05°N, 83.4°W
Report Text: KFDY 231753Z AUTO 29004KT 10SM FEW012 11/06 A3021 RMK AO2 SLP228 T01110061 10111 20011 58018
Loading
Personal Weather Stations






























Interactive Weather Map
Tropical Storm Tracking
New forecast layout! Learn more

10-Day Weather Forecast

Advertisements
Track Severe Weather on mobile